KMFR/MFR METAR and TAF weather

Enter ICAO airport designator
Station Type Date Time Source
KMFR METAR 2020/09/20 06:53 UTC NOAA

KMFR 200653Z AUTO 20003KT 10SM CLR 17/09 A3008 RMK AO2 SLP178 T01670089


Station Type Date Time Source
KMFR Decoded METAR 2020/09/20 06:53 UTC NOAA

ROGUE VALLEY INTERNATIONAL AIRPORT, OR, United States (KMFR) 42-23N 122-53W 396M
Sep 20, 2020 - 02:53 AM EDT / 2020.09.20 0653 UTC
Wind: from the SSW (200 degrees) at 3 MPH (3 KT):0
Visibility: 10 mile(s):0
Sky conditions: clear
Temperature: 62.1 F (16.7 C)
Dew Point: 48.0 F (8.9 C)
Relative Humidity: 59%
Pressure (altimeter): 30.08 in. Hg (1018 hPa)
ob: KMFR 200653Z AUTO 20003KT 10SM CLR 17/09 A3008 RMK AO2 SLP178 T01670089
cycle: 7

Station Type Date Time Source
KMFR TAF 2020/09/20 06:48 UTC NOAA

TAF KMFR 200545Z 2006/2106 00000KT P6SM SKC
FM202300 34006KT P6SM SKC

Example: see airport list